Time;durP1;ratioP1;P1;durP2;ratioP2;P2;SDS_P1;SDS_P2;PMS_P1;PMS_P2;Temp;Humidity;BMP_temperature;BMP_pressure;BME280_temperature;BME280_humidity;BME280_pressure;Samples;Min_cycle;Max_cycle;Signal;HPM_P1;HPM_P2
2022/08/25 00:00:09;;;;;;;0.93;0.55;;;;;;;23.87;71.43;101247.69;7390188;19;20024;-65
2022/08/25 00:02:36;;;;;;;3.92;0.70;;;;;;;23.84;71.37;101251.66;7391834;19;20022;-65
2022/08/25 00:05:04;;;;;;;3.50;0.80;;;;;;;23.83;72.65;101244.63;7386360;19;20006;-64
2022/08/25 00:07:32;;;;;;;1.48;0.50;;;;;;;23.82;73.45;101239.50;7389474;19;20292;-65
2022/08/25 00:09:59;;;;;;;1.42;0.55;;;;;;;23.77;73.91;101234.78;7391626;19;20358;-66
2022/08/25 00:12:26;;;;;;;2.45;0.50;;;;;;;23.74;74.14;101229.88;7390013;19;20549;-62
2022/08/25 00:14:53;;;;;;;1.73;0.52;;;;;;;23.71;75.02;101222.28;7390368;19;20017;-63
2022/08/25 00:17:20;;;;;;;1.08;0.50;;;;;;;23.68;74.56;101222.72;7391291;19;20019;-63
2022/08/25 00:19:52;;;;;;;1.10;0.40;;;;;;;23.68;75.72;101211.16;7386663;19;20011;-64
2022/08/25 00:22:19;;;;;;;3.03;0.50;;;;;;;23.65;75.64;101208.94;7392456;19;20351;-64
2022/08/25 00:24:46;;;;;;;2.47;0.52;;;;;;;23.61;76.22;101215.81;7389892;19;20283;-65
2022/08/25 00:27:13;;;;;;;1.23;0.40;;;;;;;23.56;76.38;101208.44;7388733;19;20199;-64
2022/08/25 00:29:52;;;;;;;1.00;0.40;;;;;;;23.53;76.50;101208.06;7388046;19;20018;-65
2022/08/25 00:32:19;;;;;;;2.40;0.60;;;;;;;23.51;77.40;101202.94;7388682;19;20462;-64
2022/08/25 00:34:46;;;;;;;1.75;0.57;;;;;;;23.50;77.01;101203.16;7386580;19;20018;-67
2022/08/25 00:37:14;;;;;;;0.75;0.40;;;;;;;23.46;77.36;101202.00;7390644;19;20578;-63
2022/08/25 00:39:53;;;;;;;2.97;0.50;;;;;;;23.46;77.52;101202.81;7388581;19;20478;-65
2022/08/25 00:42:20;;;;;;;5.85;0.52;;;;;;;23.43;77.73;101201.34;7389240;19;20041;-65
2022/08/25 00:44:47;;;;;;;2.15;0.40;;;;;;;23.36;78.23;101197.97;7389226;19;20371;-66
2022/08/25 00:47:14;;;;;;;1.52;0.50;;;;;;;23.35;78.43;101200.84;7390605;19;20011;-66
2022/08/25 00:49:57;;;;;;;3.50;0.50;;;;;;;23.34;78.85;101196.53;7386298;19;20014;-66
2022/08/25 00:52:26;;;;;;;;;;;;;;;23.32;78.52;101203.97;7388809;19;20020;-66
2022/08/25 00:55:07;;;;;;;0.93;0.40;;;;;;;23.27;79.03;101212.72;7385795;19;19925;-64
2022/08/25 00:58:18;;;;;;;1.00;0.45;;;;;;;23.23;79.34;101202.66;7389132;19;20026;-65
2022/08/25 01:00:49;;;;;;;1.02;0.40;;;;;;;23.22;79.59;101201.03;7387194;19;20074;-66
2022/08/25 01:03:18;;;;;;;0.65;0.40;;;;;;;23.22;79.94;101211.75;7389976;19;20018;-64
2022/08/25 01:05:46;;;;;;;1.92;0.40;;;;;;;23.21;79.53;101210.16;7381088;19;20028;-64
2022/08/25 01:08:15;;;;;;;1.35;0.50;;;;;;;23.23;80.25;101211.53;7389016;19;20554;-65
2022/08/25 01:10:43;;;;;;;1.15;0.60;;;;;;;23.23;80.14;101208.84;7389736;19;20027;-65
2022/08/25 01:13:16;;;;;;;0.93;0.40;;;;;;;23.23;80.55;101203.50;7387214;19;20020;-65
2022/08/25 01:15:45;;;;;;;2.28;0.40;;;;;;;23.21;80.71;101202.09;7384536;19;20443;-65
2022/08/25 01:18:14;;;;;;;2.58;0.30;;;;;;;23.20;80.76;101203.13;7389164;19;20461;-65
2022/08/25 01:20:41;;;;;;;1.85;0.38;;;;;;;23.18;80.96;101197.97;7387489;19;20379;-65
2022/08/25 01:23:08;;;;;;;1.42;0.35;;;;;;;23.20;81.26;101193.22;7387873;19;20011;-64
2022/08/25 01:25:52;;;;;;;2.20;0.40;;;;;;;23.23;80.87;101202.66;7386631;19;20483;-65
2022/08/25 01:28:20;;;;;;;1.83;0.60;;;;;;;23.23;80.49;101202.66;7386824;19;20015;-66
2022/08/25 01:30:48;;;;;;;1.02;0.30;;;;;;;23.24;81.40;101185.50;7384868;19;20350;-64
2022/08/25 01:33:18;;;;;;;3.30;0.50;;;;;;;23.24;81.53;101169.41;7389674;19;20007;-64
2022/08/25 01:35:45;;;;;;;2.28;0.50;;;;;;;23.26;81.58;101151.19;7379399;19;20519;-62
2022/08/25 01:38:13;;;;;;;0.90;0.38;;;;;;;23.22;81.78;101150.81;7387047;19;20359;-63
2022/08/25 01:40:41;;;;;;;1.75;0.40;;;;;;;23.21;82.39;101151.06;7387120;19;20471;-63
2022/08/25 01:43:14;;;;;;;0.50;0.30;;;;;;;23.20;82.66;101152.09;7388947;19;20435;-63
2022/08/25 01:45:45;;;;;;;1.98;0.50;;;;;;;23.18;82.52;101149.63;7387772;19;20010;-64
2022/08/25 01:48:14;;;;;;;2.03;0.40;;;;;;;23.19;82.87;101153.97;7386121;19;20033;-63
2022/08/25 01:50:42;;;;;;;0.68;0.30;;;;;;;23.19;82.47;101153.97;7384824;19;20025;-64
2022/08/25 01:53:25;;;;;;;1.95;0.52;;;;;;;23.21;82.04;101156.44;7383339;19;20010;-64
2022/08/25 01:56:00;;;;;;;2.65;0.82;;;;;;;23.19;82.21;101169.25;7386630;19;20019;-64
2022/08/25 01:58:31;;;;;;;2.00;0.70;;;;;;;23.17;82.27;101169.47;7385937;19;20014;-65
2022/08/25 02:01:01;;;;;;;1.25;0.50;;;;;;;23.17;82.42;101174.84;7387226;19;20457;-66
2022/08/25 02:03:29;;;;;;;1.92;0.30;;;;;;;23.15;82.68;101168.91;7387782;19;20006;-66
2022/08/25 02:06:00;;;;;;;1.02;0.30;;;;;;;23.14;83.04;101172.63;7382477;19;20453;-65
2022/08/25 02:08:30;;;;;;;0.85;0.40;;;;;;;23.12;83.09;101182.75;7386479;19;20010;-65
2022/08/25 02:10:57;;;;;;;6.53;0.80;;;;;;;23.13;83.40;101179.03;7388260;19;20010;-65
2022/08/25 02:13:24;;;;;;;9.02;1.40;;;;;;;23.11;84.67;101172.28;7387545;19;20017;-65
2022/08/25 02:15:59;;;;;;;5.28;1.15;;;;;;;23.08;87.13;101167.34;7386733;19;20019;-64
2022/08/25 02:18:27;;;;;;;3.90;0.90;;;;;;;23.01;87.57;101162.03;7387896;19;20015;-63
2022/08/25 02:20:54;;;;;;;7.40;0.75;;;;;;;22.90;88.43;101154.78;7383424;19;20082;-66
2022/08/25 02:23:21;;;;;;;3.90;0.70;;;;;;;22.79;89.24;101153.66;7386858;19;20021;-67
2022/08/25 02:25:48;;;;;;;2.72;0.65;;;;;;;22.72;89.85;101160.97;7386111;19;20019;-66
2022/08/25 02:28:15;;;;;;;14.48;2.28;;;;;;;22.69;91.52;101174.00;7385578;19;20087;-66
2022/08/25 02:30:42;;;;;;;4.18;1.10;;;;;;;22.65;92.87;101176.31;7385673;19;20664;-66
2022/08/25 02:33:10;;;;;;;4.45;1.70;;;;;;;22.61;93.36;101175.91;7383859;19;20011;-66
2022/08/25 02:35:38;;;;;;;3.97;0.98;;;;;;;22.58;94.65;101171.00;7382996;19;20569;-66
2022/08/25 02:38:07;;;;;;;5.68;1.00;;;;;;;22.54;95.05;101151.03;7385898;19;20380;-63
2022/08/25 02:40:34;;;;;;;3.90;1.02;;;;;;;22.48;95.19;101135.81;7386054;19;20010;-63
2022/08/25 02:43:01;;;;;;;3.45;1.10;;;;;;;22.45;95.49;101143.50;7385026;19;20307;-63
2022/08/25 02:45:38;;;;;;;3.63;1.38;;;;;;;22.41;95.52;101153.84;7385215;19;20050;-65
2022/08/25 02:48:05;;;;;;;5.00;1.08;;;;;;;22.41;96.80;101167.25;7383568;19;20014;-65
2022/08/25 02:50:32;;;;;;;4.28;1.48;;;;;;;22.41;97.10;101185.22;7382821;19;20006;-67
2022/08/25 02:53:00;;;;;;;5.78;1.50;;;;;;;22.40;96.35;101186.28;7382252;19;20025;-64
2022/08/25 02:55:39;;;;;;;8.27;1.30;;;;;;;22.37;96.85;101174.13;7385353;19;20014;-64
2022/08/25 02:58:08;;;;;;;9.73;2.28;;;;;;;22.35;97.71;101159.31;7384577;19;20304;-65
2022/08/25 03:00:35;;;;;;;9.32;1.73;;;;;;;22.34;97.89;101149.59;7385257;19;20011;-64
2022/08/25 03:03:04;;;;;;;9.23;2.80;;;;;;;22.28;98.11;101142.44;7385510;19;20014;-64
2022/08/25 03:05:38;;;;;;;9.60;2.22;;;;;;;22.25;98.44;101145.59;7380174;19;20017;-62
2022/08/25 03:08:06;;;;;;;6.20;2.67;;;;;;;22.20;98.72;101140.84;7383768;19;20929;-66
2022/08/25 03:10:34;;;;;;;7.65;1.98;;;;;;;22.15;97.48;101129.97;7384384;19;20024;-66
2022/08/25 03:13:01;;;;;;;7.60;1.92;;;;;;;22.13;97.83;101113.31;7382433;19;20349;-64
2022/08/25 03:15:38;;;;;;;5.88;2.50;;;;;;;22.09;96.99;101112.94;7385041;19;20479;-64
2022/08/25 03:18:10;;;;;;;6.95;2.47;;;;;;;22.08;97.87;101113.16;7383097;19;20010;-64
2022/08/25 03:20:39;;;;;;;8.57;2.65;;;;;;;22.02;98.19;101112.16;7380571;19;20020;-64
2022/08/25 03:23:06;;;;;;;9.73;3.03;;;;;;;21.99;98.80;101112.59;7385574;19;20047;-65
2022/08/25 03:28:30;;;;;;;6.07;2.33;;;;;;;21.98;98.96;101110.97;7382357;19;20038;-64
2022/08/25 03:30:57;;;;;;;3.83;2.40;;;;;;;21.96;98.63;101109.53;7384238;19;20456;-64
2022/08/25 03:33:26;;;;;;;6.00;2.83;;;;;;;21.96;98.60;101106.88;7383508;19;20014;-65
2022/08/25 03:35:54;;;;;;;8.15;3.20;;;;;;;21.95;97.76;101106.03;7380110;19;20018;-65
2022/08/25 03:38:25;;;;;;;4.53;2.85;;;;;;;21.95;97.30;101103.38;7382619;19;20649;-64
2022/08/25 03:40:54;;;;;;;6.25;3.50;;;;;;;21.92;96.98;101097.59;7382937;19;20435;-67
2022/08/25 03:43:21;;;;;;;6.25;2.70;;;;;;;21.85;97.22;101081.56;7383152;19;20656;-65
2022/08/25 03:45:48;;;;;;;4.72;2.70;;;;;;;21.83;97.90;101091.72;7382879;19;20014;-64
2022/08/25 03:48:16;;;;;;;6.82;2.85;;;;;;;21.79;97.69;101097.72;7383105;19;20123;-64
2022/08/25 03:50:48;;;;;;;7.82;3.03;;;;;;;21.74;98.07;101106.41;7380684;19;20015;-65
2022/08/25 03:53:18;;;;;;;7.68;2.75;;;;;;;21.72;98.78;101098.59;7381161;19;20015;-64
2022/08/25 03:55:46;;;;;;;5.93;3.03;;;;;;;21.70;98.41;101106.03;7382482;19;20015;-65
2022/08/25 03:58:14;;;;;;;8.10;4.45;;;;;;;21.69;97.91;101131.19;7380315;19;20014;-65
2022/08/25 04:00:41;;;;;;;6.45;3.67;;;;;;;21.69;97.89;101135.72;7382738;19;20021;-65
2022/08/25 04:03:08;;;;;;;6.40;3.80;;;;;;;21.67;98.14;101152.03;7383470;19;20022;-66
2022/08/25 04:05:38;;;;;;;6.03;3.42;;;;;;;21.68;99.25;101158.19;7380157;19;20076;-62
2022/08/25 04:08:06;;;;;;;6.65;3.63;;;;;;;21.67;99.56;101143.97;7380583;19;20021;-63
2022/08/25 04:10:35;;;;;;;5.90;3.60;;;;;;;21.69;100.00;101139.22;7382747;19;20502;-63
2022/08/25 04:13:02;;;;;;;9.98;3.95;;;;;;;21.68;99.96;101134.91;7381026;19;20461;-63
2022/08/25 04:15:42;;;;;;;11.98;4.80;;;;;;;21.67;99.60;101117.19;7382289;19;20022;-63
2022/08/25 04:18:10;;;;;;;9.65;4.63;;;;;;;21.58;98.85;101104.28;7382388;19;20014;-63
2022/08/25 04:20:37;;;;;;;12.35;5.00;;;;;;;21.54;99.58;101081.63;7379490;19;20014;-66
2022/08/25 04:23:10;;;;;;;10.88;4.82;;;;;;;21.48;99.01;101086.03;7382928;19;20485;-66
2022/08/25 04:25:42;;;;;;;9.18;5.60;;;;;;;21.41;99.04;101087.09;7382836;19;20070;-66
2022/08/25 04:28:11;;;;;;;10.27;5.28;;;;;;;21.34;99.17;101089.81;7382369;19;20384;-64
2022/08/25 04:30:42;;;;;;;12.13;5.88;;;;;;;21.33;99.49;101093.56;7388859;19;20018;-62
2022/08/25 04:33:09;;;;;;;8.70;5.75;;;;;;;21.31;99.91;101098.31;7387216;19;20011;-63
2022/08/25 04:35:40;;;;;;;12.43;6.63;;;;;;;21.26;100.00;101098.97;7385471;19;20573;-63
2022/08/25 04:38:08;;;;;;;11.82;6.70;;;;;;;21.26;100.00;101111.53;7387548;19;20014;-63
2022/08/25 04:40:35;;;;;;;13.15;7.20;;;;;;;21.24;100.00;101102.88;7386370;19;20481;-62
2022/08/25 04:43:02;;;;;;;13.07;7.72;;;;;;;21.22;99.95;101096.94;7386632;19;20102;-63
2022/08/25 04:45:39;;;;;;;12.23;6.97;;;;;;;21.21;100.00;101106.00;7385842;19;20107;-64
2022/08/25 04:48:06;;;;;;;16.13;8.05;;;;;;;21.18;100.00;101111.78;7389261;19;20015;-65
2022/08/25 04:50:38;;;;;;;16.70;7.50;;;;;;;21.17;100.00;101135.06;7382548;19;20018;-65
2022/08/25 04:53:05;;;;;;;18.92;8.70;;;;;;;21.15;100.00;101133.63;7384694;19;20018;-66
2022/08/25 04:55:45;;;;;;;17.15;8.38;;;;;;;21.17;100.00;101136.91;7385232;19;20486;-65
2022/08/25 04:58:14;;;;;;;16.13;8.35;;;;;;;21.15;100.00;101150.50;7388214;19;20363;-65
2022/08/25 05:00:42;;;;;;;15.02;8.70;;;;;;;21.11;100.00;101165.31;7388877;19;20015;-62
2022/08/25 05:03:10;;;;;;;17.67;8.85;;;;;;;21.11;100.00;101177.88;7389798;19;20006;-64
2022/08/25 05:05:40;;;;;;;15.63;7.90;;;;;;;21.12;100.00;101188.38;7386671;19;20061;-63
2022/08/25 05:08:08;;;;;;;13.98;8.45;;;;;;;21.12;100.00;101188.38;7387911;19;20608;-63
2022/08/25 05:10:40;;;;;;;21.48;11.23;;;;;;;21.16;100.00;101218.25;7389979;19;20478;-62
2022/08/25 05:13:09;;;;;;;19.95;9.48;;;;;;;21.18;100.00;101251.00;7386489;19;20018;-63
2022/08/25 05:15:49;;;;;;;16.08;10.02;;;;;;;21.19;100.00;101268.66;7389284;19;20031;-64
2022/08/25 05:18:19;;;;;;;20.35;9.63;;;;;;;21.21;100.00;101261.25;7388985;19;20049;-65
2022/08/25 05:20:46;;;;;;;18.08;9.13;;;;;;;21.21;100.00;101247.88;7386462;19;20041;-64
2022/08/25 05:23:13;;;;;;;17.52;9.18;;;;;;;21.23;100.00;101253.84;7387852;19;20018;-64
2022/08/25 05:25:43;;;;;;;16.52;9.93;;;;;;;21.24;100.00;101245.59;7389345;19;20554;-65
2022/08/25 05:28:10;;;;;;;17.85;9.98;;;;;;;21.25;100.00;101230.34;7384918;19;20028;-64
2022/08/25 05:30:39;;;;;;;15.45;8.75;;;;;;;21.26;100.00;101229.31;7387434;19;20010;-66
2022/08/25 05:33:07;;;;;;;14.88;8.88;;;;;;;21.20;98.57;101217.59;7385489;19;20091;-65
2022/08/25 05:35:37;;;;;;;14.88;9.20;;;;;;;21.14;98.86;101218.44;7385413;19;20053;-65
2022/08/25 05:38:09;;;;;;;15.57;10.40;;;;;;;21.13;100.00;101229.34;7387152;19;20023;-64
2022/08/25 05:40:41;;;;;;;19.67;10.20;;;;;;;21.12;100.00;101225.84;7387578;19;20037;-62
2022/08/25 05:43:09;;;;;;;17.20;9.45;;;;;;;21.11;100.00;101228.72;7386789;19;20011;-64
2022/08/25 05:45:40;;;;;;;17.17;10.85;;;;;;;21.09;100.00;101214.72;7388429;19;20014;-64
2022/08/25 05:48:08;;;;;;;16.73;10.05;;;;;;;21.06;100.00;101207.97;7389844;19;20387;-63
2022/08/25 05:50:37;;;;;;;15.30;9.10;;;;;;;21.03;100.00;101194.19;7385215;19;20656;-64
2022/08/25 05:53:07;;;;;;;17.98;10.55;;;;;;;21.02;100.00;101196.03;7386506;19;20019;-65
2022/08/25 05:55:36;;;;;;;17.75;10.45;;;;;;;21.00;100.00;101181.22;7387887;19;20018;-65
2022/08/25 05:58:06;;;;;;;18.90;10.98;;;;;;;20.96;100.00;101171.97;7386591;19;20041;-64
2022/08/25 06:00:38;;;;;;;15.45;10.65;;;;;;;20.93;100.00;101160.66;7388150;19;20018;-65
2022/08/25 06:03:05;;;;;;;15.10;9.60;;;;;;;20.90;100.00;101168.28;7386891;19;20024;-66
2022/08/25 06:05:36;;;;;;;19.50;11.13;;;;;;;20.91;100.00;101178.78;7380640;19;20011;-65
2022/08/25 06:08:06;;;;;;;15.27;10.32;;;;;;;20.93;100.00;101187.41;7384565;19;20593;-64
2022/08/25 06:10:34;;;;;;;16.77;10.43;;;;;;;20.93;100.00;101176.69;7385695;19;20114;-64
2022/08/25 06:13:02;;;;;;;14.55;10.02;;;;;;;20.92;100.00;101183.13;7384022;19;20037;-65
2022/08/25 06:15:36;;;;;;;16.67;10.00;;;;;;;20.87;100.00;101166.88;7388515;19;20037;-65
2022/08/25 06:18:06;;;;;;;18.48;11.15;;;;;;;20.89;100.00;101167.47;7384742;19;20010;-66
2022/08/25 06:20:35;;;;;;;16.95;10.75;;;;;;;20.83;100.00;101152.25;7382823;19;20019;-66
2022/08/25 06:23:02;;;;;;;17.60;10.15;;;;;;;20.83;100.00;101156.78;7384993;19;20003;-66
2022/08/25 06:25:35;;;;;;;14.93;9.80;;;;;;;20.81;100.00;101151.66;7385197;19;20038;-65
2022/08/25 06:28:04;;;;;;;16.00;9.38;;;;;;;20.79;100.00;101147.53;7384802;19;20463;-66
2022/08/25 06:30:32;;;;;;;14.27;9.63;;;;;;;20.76;100.00;101137.28;7384138;19;20022;-65
2022/08/25 06:32:59;;;;;;;14.00;9.52;;;;;;;20.76;100.00;101146.13;7385176;19;20422;-65
2022/08/25 06:35:33;;;;;;;14.70;9.77;;;;;;;20.76;100.00;101146.13;7384021;19;20018;-65
2022/08/25 06:38:03;;;;;;;14.68;10.07;;;;;;;20.74;100.00;101155.38;7384322;19;20354;-65
2022/08/25 06:40:30;;;;;;;16.27;9.73;;;;;;;20.73;100.00;101170.59;7386622;19;20478;-64
2022/08/25 06:42:57;;;;;;;14.73;9.75;;;;;;;20.77;100.00;101198.59;7385263;19;20027;-64
2022/08/25 06:45:24;;;;;;;16.15;10.65;;;;;;;20.80;100.00;101218.75;7386145;19;20023;-64
2022/08/25 06:47:58;;;;;;;18.40;10.20;;;;;;;20.81;100.00;101225.75;7385223;19;20486;-64
2022/08/25 06:50:25;;;;;;;14.05;9.38;;;;;;;20.82;100.00;101224.72;7382986;19;20064;-65
2022/08/25 06:52:52;;;;;;;12.82;8.80;;;;;;;20.80;100.00;101216.91;7380736;19;20018;-66
2022/08/25 06:55:19;;;;;;;15.60;9.77;;;;;;;20.82;100.00;101208.66;7383392;19;20019;-66
2022/08/25 06:57:47;;;;;;;14.10;9.20;;;;;;;20.80;100.00;101211.53;7385831;19;20367;-66
2022/08/25 07:00:15;;;;;;;16.45;10.02;;;;;;;20.77;100.00;101211.97;7386371;19;20324;-65
2022/08/25 07:02:42;;;;;;;17.92;10.35;;;;;;;20.80;100.00;101234.78;7385127;19;20348;-64
2022/08/25 07:05:09;;;;;;;15.57;9.80;;;;;;;20.81;100.00;101249.81;7382684;19;20015;-65
2022/08/25 07:07:49;;;;;;;14.93;9.50;;;;;;;20.81;100.00;101264.03;7369714;19;20014;-64
2022/08/25 07:10:18;;;;;;;15.82;9.75;;;;;;;20.81;100.00;101261.34;7376885;19;20367;-66
2022/08/25 07:12:49;;;;;;;13.25;8.70;;;;;;;20.85;100.00;101256.41;7379932;19;20007;-65
2022/08/25 07:15:17;;;;;;;15.93;8.85;;;;;;;20.86;100.00;101253.53;7381595;19;20022;-65
2022/08/25 07:17:47;;;;;;;18.00;9.43;;;;;;;20.84;100.00;101236.84;7383334;19;20065;-65
2022/08/25 07:20:15;;;;;;;15.15;8.27;;;;;;;20.84;100.00;101236.84;7377923;19;20047;-66
2022/08/25 07:22:46;;;;;;;13.50;8.60;;;;;;;20.84;100.00;101230.66;7381659;19;20150;-66
2022/08/25 07:25:15;;;;;;;12.60;8.75;;;;;;;20.82;100.00;101228.22;7379330;19;20047;-65
2022/08/25 07:27:44;;;;;;;13.50;9.10;;;;;;;20.79;100.00;101228.63;7378548;19;20372;-64
2022/08/25 07:30:12;;;;;;;13.63;8.35;;;;;;;20.81;100.00;101225.75;7382244;19;20377;-65
2022/08/25 07:32:39;;;;;;;14.05;8.90;;;;;;;20.79;100.00;101227.81;7381035;19;20530;-66
2022/08/25 07:35:16;;;;;;;16.55;10.38;;;;;;;20.80;100.00;101224.91;7378393;19;20010;-65
2022/08/25 07:37:49;;;;;;;16.27;10.63;;;;;;;20.78;100.00;101218.94;7379561;19;20054;-67
2022/08/25 07:40:22;;;;;;;15.60;10.00;;;;;;;20.77;100.00;101236.06;7383557;19;20014;-66
2022/08/25 07:42:51;;;;;;;14.40;9.38;;;;;;;20.73;100.00;101224.09;7383278;19;20565;-65
2022/08/25 07:45:19;;;;;;;12.95;7.93;;;;;;;20.69;100.00;101225.56;7382480;19;20014;-64
2022/08/25 07:47:48;;;;;;;15.10;9.05;;;;;;;20.68;100.00;101210.53;7382452;19;20010;-65
2022/08/25 07:50:18;;;;;;;14.63;9.27;;;;;;;20.68;100.00;101197.16;7380453;19;20014;-65
2022/08/25 07:52:45;;;;;;;14.93;8.20;;;;;;;20.66;100.00;101183.19;7382468;19;20417;-65
2022/08/25 07:55:20;;;;;;;14.50;9.57;;;;;;;20.67;100.00;101181.34;7381930;19;20554;-65
2022/08/25 07:57:47;;;;;;;14.57;9.40;;;;;;;20.66;100.00;101198.41;7383356;19;20069;-66
2022/08/25 08:00:20;;;;;;;13.60;8.65;;;;;;;20.63;100.00;101201.50;7382899;19;20010;-66
2022/08/25 08:02:47;;;;;;;12.68;8.88;;;;;;;20.61;100.00;101203.56;7382772;19;20388;-66
2022/08/25 08:05:14;;;;;;;93.40;20.23;;;;;;;20.62;100.00;101206.03;7387640;19;20014;-66
2022/08/25 08:07:41;;;;;;;15.07;9.98;;;;;;;20.68;100.00;101229.25;7388312;19;20019;-65
2022/08/25 08:10:12;;;;;;;13.35;8.25;;;;;;;20.70;100.00;101245.09;7390305;19;20659;-66
2022/08/25 08:12:59;;;;;;;14.70;7.43;;;;;;;20.68;100.00;101242.63;7387341;19;20021;-67
2022/08/25 08:15:33;;;;;;;12.73;7.25;;;;;;;20.67;100.00;101240.97;7388883;19;20006;-64
2022/08/25 08:18:00;;;;;;;12.52;7.25;;;;;;;20.67;100.00;101261.59;7388547;19;20025;-66
2022/08/25 08:20:32;;;;;;;9.55;6.13;;;;;;;20.66;100.00;101260.75;7385169;19;20018;-64
2022/08/25 08:23:08;;;;;;;7.72;5.05;;;;;;;20.62;100.00;101262.19;7387062;19;20022;-66
2022/08/25 08:25:35;;;;;;;8.95;5.90;;;;;;;20.65;100.00;101255.63;7387553;19;20367;-66
2022/08/25 08:28:02;;;;;;;10.13;5.90;;;;;;;20.61;99.81;101247.19;7388458;19;20350;-64
2022/08/25 08:30:29;;;;;;;8.85;5.38;;;;;;;20.60;99.67;101248.22;7388657;19;20414;-65
2022/08/25 08:32:55;;;;;;;8.85;5.93;;;;;;;20.57;100.00;101253.97;7388892;19;20038;-66
2022/08/25 08:35:36;;;;;;;8.65;5.70;;;;;;;20.57;100.00;101245.16;7384282;19;20039;-66
2022/08/25 08:38:04;;;;;;;8.90;6.65;;;;;;;20.61;100.00;101241.03;7387472;19;20014;-67
2022/08/25 08:42:15;;;;;;;12.40;6.30;;;;;;;20.57;100.00;101224.53;7388856;19;20015;-65
2022/08/25 08:43:41;;;;;;;8.40;5.50;;;;;;;20.51;100.00;101237.94;7387524;19;20006;-65
2022/08/25 08:46:09;;;;;;;8.30;4.70;;;;;;;20.46;100.00;101246.59;7388813;19;20018;-64
2022/08/25 08:48:42;;;;;;;6.63;4.00;;;;;;;20.43;100.00;101242.47;7387754;19;20616;-64
2022/08/25 08:51:19;;;;;;;10.80;4.82;;;;;;;20.44;100.00;101256.66;7385016;19;20014;-64
2022/08/25 08:53:54;;;;;;;8.45;4.32;;;;;;;20.45;100.00;101253.78;7385849;19;20023;-66
2022/08/25 08:56:31;;;;;;;8.45;4.00;;;;;;;20.43;100.00;101260.34;7387284;19;20018;-66
2022/08/25 08:59:03;;;;;;;8.77;3.80;;;;;;;20.42;100.00;101245.34;7385935;19;20018;-67
2022/08/25 09:01:57;;;;;;;7.25;4.25;;;;;;;20.44;100.00;101254.00;7388964;19;20351;-66
2022/08/25 09:04:38;;;;;;;5.65;3.33;;;;;;;20.44;100.00;101257.50;7384262;19;20086;-67
2022/08/25 09:07:10;;;;;;;7.75;3.63;;;;;;;20.47;100.00;101264.25;7388707;19;20078;-67
2022/08/25 09:09:41;;;;;;;6.72;3.70;;;;;;;20.44;100.00;101267.34;7385418;19;20015;-66
2022/08/25 09:12:14;;;;;;;4.30;2.25;;;;;;;20.44;100.00;101267.34;7388109;19;20027;-66
2022/08/25 09:15:15;;;;;;;7.32;3.10;;;;;;;20.44;100.00;101270.84;7382032;19;20117;-67
2022/08/25 09:18:09;;;;;;;5.13;2.42;;;;;;;20.47;100.00;101274.94;7386645;19;20018;-67
2022/08/25 09:21:07;;;;;;;20.60;6.18;;;;;;;20.49;100.00;101268.38;7382757;19;20019;-67
2022/08/25 09:23:53;;;;;;;5.95;3.20;;;;;;;20.55;100.00;101280.09;7385973;19;20094;-63
2022/08/25 09:26:38;;;;;;;4.13;2.50;;;;;;;20.60;100.00;101280.31;7388934;19;20017;-64
2022/08/25 09:29:21;;;;;;;6.18;2.60;;;;;;;20.61;100.00;101244.53;7386426;19;20020;-64
2022/08/25 09:31:52;;;;;;;4.35;1.90;;;;;;;20.60;100.00;101256.25;7387507;19;20014;-65
2022/08/25 09:34:23;;;;;;;3.47;1.75;;;;;;;20.58;100.00;101278.84;7380722;19;20553;-65
2022/08/25 09:36:51;;;;;;;4.07;2.15;;;;;;;20.58;100.00;101260.97;7387510;19;20018;-64
2022/08/25 09:39:19;;;;;;;4.75;1.80;;;;;;;20.58;100.00;101252.13;7383915;19;20562;-65
2022/08/25 09:41:54;;;;;;;3.55;1.55;;;;;;;20.60;100.00;101256.25;7387627;19;20066;-66
2022/08/25 09:44:26;;;;;;;2.83;1.30;;;;;;;20.59;100.00;101261.78;7384551;19;20018;-65
2022/08/25 09:47:02;;;;;;;4.20;1.55;;;;;;;20.58;100.00;101250.25;7385839;19;20090;-63
2022/08/25 09:49:44;;;;;;;4.25;1.42;;;;;;;20.55;100.00;101242.66;7382913;19;20010;-67
2022/08/25 09:52:26;;;;;;;2.47;1.10;;;;;;;20.53;99.94;101250.06;7386557;19;20014;-66
2022/08/25 09:54:56;;;;;;;2.40;1.13;;;;;;;20.49;100.00;101260.38;7383224;19;20035;-69
2022/08/25 09:57:31;;;;;;;3.28;1.23;;;;;;;20.48;100.00;101245.34;7385847;19;20171;-67
2022/08/25 10:00:13;;;;;;;2.50;1.08;;;;;;;20.47;100.00;101245.53;7384599;19;20030;-67
2022/08/25 10:02:42;;;;;;;3.03;1.50;;;;;;;20.47;100.00;101254.38;7386718;19;20489;-66
2022/08/25 10:05:39;;;;;;;4.47;1.50;;;;;;;20.48;100.00;101249.88;7383488;19;20722;-64
2022/08/25 10:08:21;;;;;;;3.20;1.23;;;;;;;20.47;100.00;101246.38;7380320;19;20016;-65
2022/08/25 10:10:56;;;;;;;5.78;1.40;;;;;;;20.47;100.00;101235.66;7385605;19;20044;-64
2022/08/25 10:13:34;;;;;;;2.58;1.10;;;;;;;20.51;100.00;101241.44;7385526;19;20202;-64
2022/08/25 10:16:22;;;;;;;3.08;1.10;;;;;;;20.51;100.00;101251.31;7385960;19;20036;-64
2022/08/25 10:19:05;;;;;;;2.08;1.40;;;;;;;20.53;100.00;101247.38;7385883;19;20018;-65
2022/08/25 10:21:34;;;;;;;2.50;1.23;;;;;;;20.57;100.00;101250.50;7385835;19;20074;-67
2022/08/25 10:24:01;;;;;;;3.97;1.50;;;;;;;20.59;100.00;101249.25;7385121;19;20010;-69
2022/08/25 10:27:09;;;;;;;4.35;1.23;;;;;;;20.65;100.00;101247.59;7383426;19;20010;-66
2022/08/25 10:30:04;;;;;;;5.70;2.13;;;;;;;20.71;100.00;101250.25;7379734;19;20022;-67
2022/08/25 10:32:46;;;;;;;2.78;1.80;;;;;;;20.75;100.00;101247.97;7386023;19;20015;-65
2022/08/25 10:35:45;;;;;;;5.78;2.00;;;;;;;20.80;100.00;101245.50;7378876;19;20479;-66
2022/08/25 10:38:31;;;;;;;3.20;1.40;;;;;;;20.81;100.00;101249.81;7382701;19;20035;-66
2022/08/25 10:41:16;;;;;;;3.35;1.23;;;;;;;20.78;100.00;101242.19;7384319;19;20341;-65
2022/08/25 10:43:43;;;;;;;4.53;1.70;;;;;;;20.80;100.00;101235.63;7384432;19;20025;-64
2022/08/25 10:46:22;;;;;;;3.33;1.38;;;;;;;20.82;100.00;101235.41;7384356;19;20295;-64
2022/08/25 10:48:58;;;;;;;6.03;1.95;;;;;;;20.81;100.00;101229.25;7385074;19;20478;-63
2022/08/25 10:51:25;;;;;;;4.05;1.45;;;;;;;20.83;100.00;101227.16;7384938;19;20105;-64
2022/08/25 10:54:10;;;;;;;55.08;10.38;;;;;;;20.83;100.00;101218.31;7382484;19;20019;-64
2022/08/25 10:56:42;;;;;;;4.68;1.85;;;;;;;20.86;100.00;101208.03;7385013;19;20082;-64
2022/08/25 10:59:30;;;;;;;2.50;1.10;;;;;;;20.89;99.99;101201.44;7384667;19;20074;-65
2022/08/25 11:02:25;;;;;;;2.78;0.90;;;;;;;20.84;99.80;101199.38;7386269;19;20528;-64
2022/08/25 11:05:08;;;;;;;2.90;1.30;;;;;;;20.81;100.00;101182.94;7381649;19;20017;-65
2022/08/25 11:07:41;;;;;;;7.80;1.90;;;;;;;20.80;100.00;101184.78;7381698;19;20018;-64
2022/08/25 11:10:30;;;;;;;2.97;1.63;;;;;;;20.83;100.00;101173.66;7383502;19;20021;-64
2022/08/25 11:13:01;;;;;;;3.90;2.67;;;;;;;20.83;100.00;101176.34;7382438;19;20007;-64
2022/08/25 11:15:54;;;;;;;7.32;2.42;;;;;;;20.87;100.00;101163.38;7384202;19;20412;-65
2022/08/25 11:18:50;;;;;;;3.05;1.48;;;;;;;20.91;100.00;101156.56;7385314;19;20025;-64
2022/08/25 11:21:41;;;;;;;38.83;8.27;;;;;;;20.94;100.00;101150.78;7384631;19;20012;-64
2022/08/25 11:24:20;;;;;;;2.17;1.55;;;;;;;20.97;100.00;101152.22;7383755;19;20019;-64
2022/08/25 11:26:55;;;;;;;2.17;1.60;;;;;;;20.97;100.00;101141.50;7384534;19;20014;-64
2022/08/25 11:29:29;;;;;;;3.72;2.08;;;;;;;20.99;99.93;101148.28;7383684;19;20267;-65
2022/08/25 11:31:58;;;;;;;6.15;2.58;;;;;;;21.01;99.92;101148.91;7385874;19;20424;-65
2022/08/25 11:34:31;;;;;;;5.22;3.55;;;;;;;21.10;100.00;101173.56;7380695;19;20023;-64
2022/08/25 11:37:07;;;;;;;6.28;4.43;;;;;;;21.09;99.75;101226.25;7383928;19;20015;-64
2022/08/25 11:39:58;;;;;;;6.65;4.28;;;;;;;21.10;100.00;101264.56;7381933;19;20041;-65
2022/08/25 11:42:54;;;;;;;6.88;5.15;;;;;;;21.08;100.00;101264.75;7384665;19;20042;-63